Time;durP1;ratioP1;P1;durP2;ratioP2;P2;SDS_P1;SDS_P2;PMS_P1;PMS_P2;Temp;Humidity;BMP_temperature;BMP_pressure;BME280_temperature;BME280_humidity;BME280_pressure;Samples;Min_cycle;Max_cycle;Signal;HPM_P1;HPM_P2
2023/10/05 00:01:03;;;;;;;243.57;62.97;;;;;;;;;;4976428;28;20520;-48
2023/10/05 00:03:30;;;;;;;250.13;70.17;;;;;;;;;;4975902;28;20435;-47
2023/10/05 00:06:04;;;;;;;242.73;63.97;;;;;;;;;;4976009;28;20468;-46
2023/10/05 00:08:31;;;;;;;243.17;62.40;;;;;;;;;;4975873;28;20466;-47
2023/10/05 00:10:58;;;;;;;239.77;62.07;;;;;;;;;;4976035;28;20416;-48
2023/10/05 00:13:26;;;;;;;251.63;70.57;;;;;;;;;;4975585;28;20760;-48
2023/10/05 00:15:52;;;;;;;244.37;64.70;;;;;;;;;;4975911;28;20451;-46
2023/10/05 00:18:20;;;;;;;243.67;65.10;;;;;;;;;;4975654;28;20436;-47
2023/10/05 00:20:48;;;;;;;242.53;62.97;;;;;;;;;;4975868;28;20412;-47
2023/10/05 00:23:14;;;;;;;244.97;65.47;;;;;;;;;;4975462;28;20916;-47
2023/10/05 00:25:40;;;;;;;242.90;63.13;;;;;;;;;;4975621;28;20571;-46
2023/10/05 00:28:11;;;;;;;247.07;66.10;;;;;;;;;;4975403;28;21002;-46
2023/10/05 00:30:37;;;;;;;244.47;65.27;;;;;;;;;;4979244;28;20447;-48
2023/10/05 00:33:09;;;;;;;244.50;63.60;;;;;;;;;;4975550;28;20980;-47
2023/10/05 00:35:37;;;;;;;244.60;66.07;;;;;;;;;;4975449;28;20434;-47
2023/10/05 00:38:14;;;;;;;244.67;65.70;;;;;;;;;;4975448;28;20409;-47
2023/10/05 00:40:50;;;;;;;241.70;62.77;;;;;;;;;;4974087;28;20492;-47
2023/10/05 00:43:26;;;;;;;248.03;68.20;;;;;;;;;;4975322;28;20498;-46
2023/10/05 00:45:52;;;;;;;239.47;61.37;;;;;;;;;;4971780;28;20908;-48
2023/10/05 00:48:34;;;;;;;242.87;62.87;;;;;;;;;;4975189;28;20460;-47
2023/10/05 00:51:17;;;;;;;243.87;64.40;;;;;;;;;;4975064;28;20438;-47
2023/10/05 00:53:45;;;;;;;242.07;63.57;;;;;;;;;;4975000;28;20417;-46
2023/10/05 00:56:14;;;;;;;243.57;64.10;;;;;;;;;;4975111;28;20423;-48
2023/10/05 00:58:49;;;;;;;242.63;63.17;;;;;;;;;;4975045;28;20794;-47
2023/10/05 01:01:15;;;;;;;245.27;65.50;;;;;;;;;;4974972;28;20495;-48
2023/10/05 01:04:06;;;;;;;243.37;64.67;;;;;;;;;;4974146;28;20454;-48
2023/10/05 01:06:43;;;;;;;242.53;63.27;;;;;;;;;;4967877;28;20511;-47
2023/10/05 01:09:20;;;;;;;241.67;63.10;;;;;;;;;;4973930;28;20883;-47
2023/10/05 01:11:54;;;;;;;240.57;61.17;;;;;;;;;;4975294;28;20921;-47
2023/10/05 01:14:23;;;;;;;240.63;62.53;;;;;;;;;;4958851;28;20400;-46
2023/10/05 01:16:49;;;;;;;243.20;63.87;;;;;;;;;;4974893;28;20407;-47
2023/10/05 01:19:15;;;;;;;241.83;63.67;;;;;;;;;;4969507;28;20514;-47
2023/10/05 01:21:43;;;;;;;240.53;61.90;;;;;;;;;;4974718;28;20425;-47
2023/10/05 01:24:10;;;;;;;245.03;65.50;;;;;;;;;;4974694;28;20799;-48
2023/10/05 01:26:37;;;;;;;240.93;61.70;;;;;;;;;;4974523;28;20459;-47
2023/10/05 01:29:04;;;;;;;242.23;62.97;;;;;;;;;;4974571;28;20443;-47
2023/10/05 01:31:32;;;;;;;241.93;64.27;;;;;;;;;;4974473;28;20431;-48
2023/10/05 01:33:59;;;;;;;242.83;63.77;;;;;;;;;;4974320;28;20513;-47
2023/10/05 01:36:25;;;;;;;242.20;63.50;;;;;;;;;;4974321;28;20432;-47
2023/10/05 01:39:00;;;;;;;242.27;62.27;;;;;;;;;;4974208;28;20531;-47
2023/10/05 01:41:27;;;;;;;243.07;63.93;;;;;;;;;;4967311;28;20413;-47
2023/10/05 01:43:53;;;;;;;242.00;62.47;;;;;;;;;;4974066;28;20549;-46
2023/10/05 01:46:20;;;;;;;243.50;62.30;;;;;;;;;;4974202;28;20567;-48
2023/10/05 01:48:47;;;;;;;241.60;61.80;;;;;;;;;;4974274;28;20498;-48
2023/10/05 01:51:23;;;;;;;245.13;67.47;;;;;;;;;;4973679;28;20415;-47
2023/10/05 01:53:52;;;;;;;243.43;61.97;;;;;;;;;;4974218;28;20422;-48
2023/10/05 01:56:20;;;;;;;243.53;63.97;;;;;;;;;;4973867;28;20416;-46
2023/10/05 01:58:50;;;;;;;242.70;61.47;;;;;;;;;;4974052;28;20880;-48
2023/10/05 02:01:16;;;;;;;242.87;63.03;;;;;;;;;;4973819;28;20409;-48
2023/10/05 02:03:42;;;;;;;242.63;63.03;;;;;;;;;;4973675;28;20497;-47
2023/10/05 02:06:11;;;;;;;243.30;62.03;;;;;;;;;;4973639;28;20466;-47
2023/10/05 02:08:37;;;;;;;243.87;63.33;;;;;;;;;;4973667;28;20963;-46
2023/10/05 02:11:04;;;;;;;242.37;63.70;;;;;;;;;;4972351;28;20466;-48
2023/10/05 02:13:31;;;;;;;248.17;69.43;;;;;;;;;;4973479;28;20411;-46
2023/10/05 02:15:59;;;;;;;240.33;60.27;;;;;;;;;;4973635;28;20418;-47
2023/10/05 02:18:26;;;;;;;242.13;62.37;;;;;;;;;;4973649;28;20443;-47
2023/10/05 02:21:55;;;;;;;242.37;61.87;;;;;;;;;;4973446;28;20415;-46
2023/10/05 02:23:51;;;;;;;239.70;59.63;;;;;;;;;;4968587;28;20447;-46
2023/10/05 02:26:24;;;;;;;244.30;63.30;;;;;;;;;;4973219;28;21001;-47
2023/10/05 02:28:51;;;;;;;242.93;63.07;;;;;;;;;;4973419;28;20429;-46
2023/10/05 02:31:20;;;;;;;242.63;61.87;;;;;;;;;;4973324;28;20482;-46
2023/10/05 02:33:46;;;;;;;239.60;60.17;;;;;;;;;;4973218;28;20893;-47
2023/10/05 02:36:20;;;;;;;244.73;65.27;;;;;;;;;;4973284;28;20507;-46
2023/10/05 02:38:49;;;;;;;241.17;60.33;;;;;;;;;;4973363;28;20435;-48
2023/10/05 02:41:17;;;;;;;243.90;62.67;;;;;;;;;;4973012;28;20413;-47
2023/10/05 02:43:51;;;;;;;242.67;61.77;;;;;;;;;;4971881;28;20434;-47
2023/10/05 02:46:19;;;;;;;242.70;62.77;;;;;;;;;;4973048;28;20502;-47
2023/10/05 02:48:45;;;;;;;244.20;64.47;;;;;;;;;;4973138;28;20447;-46
2023/10/05 02:51:13;;;;;;;243.37;62.67;;;;;;;;;;4972992;28;20893;-47
2023/10/05 02:53:44;;;;;;;243.20;62.37;;;;;;;;;;4972878;28;20490;-46
2023/10/05 02:56:26;;;;;;;241.37;60.60;;;;;;;;;;4972989;28;20423;-47
2023/10/05 02:58:54;;;;;;;242.00;60.83;;;;;;;;;;4969605;28;20462;-47
2023/10/05 03:01:21;;;;;;;240.47;60.90;;;;;;;;;;4970341;28;20404;-47
2023/10/05 03:03:47;;;;;;;243.43;63.77;;;;;;;;;;4972196;28;20443;-48
2023/10/05 03:06:15;;;;;;;241.77;61.40;;;;;;;;;;4972828;28;20470;-47
2023/10/05 03:08:42;;;;;;;241.93;62.43;;;;;;;;;;4972673;28;20492;-46
2023/10/05 03:11:08;;;;;;;243.20;62.87;;;;;;;;;;4972778;28;20420;-48
2023/10/05 03:13:36;;;;;;;246.17;65.90;;;;;;;;;;4972672;28;20436;-46
2023/10/05 03:16:06;;;;;;;241.37;62.00;;;;;;;;;;4972944;28;20411;-46
2023/10/05 03:18:32;;;;;;;242.10;61.90;;;;;;;;;;4967095;28;20425;-46
2023/10/05 03:20:58;;;;;;;242.67;63.60;;;;;;;;;;4972602;28;20911;-47
2023/10/05 03:23:24;;;;;;;250.93;68.97;;;;;;;;;;4972538;28;20938;-48
2023/10/05 03:25:53;;;;;;;243.73;64.83;;;;;;;;;;4972695;28;20463;-47
2023/10/05 03:28:19;;;;;;;242.67;62.93;;;;;;;;;;4964682;28;20808;-47
2023/10/05 03:30:48;;;;;;;242.87;64.07;;;;;;;;;;4972715;28;20506;-46
2023/10/05 03:33:17;;;;;;;240.00;61.57;;;;;;;;;;4972495;28;20479;-48
2023/10/05 03:35:45;;;;;;;246.43;66.33;;;;;;;;;;4972550;28;20410;-46
2023/10/05 03:38:12;;;;;;;243.87;63.93;;;;;;;;;;4972554;28;20931;-48
2023/10/05 03:40:43;;;;;;;245.47;65.40;;;;;;;;;;4971925;28;20431;-48
2023/10/05 03:43:10;;;;;;;241.40;62.10;;;;;;;;;;4972553;28;20447;-46
2023/10/05 03:45:38;;;;;;;244.53;64.17;;;;;;;;;;4972515;28;20541;-46
2023/10/05 03:48:05;;;;;;;243.87;63.57;;;;;;;;;;4972314;28;20780;-46
2023/10/05 03:50:31;;;;;;;242.27;62.43;;;;;;;;;;4972513;28;20419;-47
2023/10/05 03:52:58;;;;;;;244.27;66.53;;;;;;;;;;4972397;28;20417;-46
2023/10/05 03:55:24;;;;;;;242.00;62.77;;;;;;;;;;4972287;28;20879;-46
2023/10/05 03:57:51;;;;;;;241.97;63.83;;;;;;;;;;4972470;28;20786;-47
2023/10/05 04:00:23;;;;;;;239.50;60.30;;;;;;;;;;4972879;28;20423;-46
2023/10/05 04:02:50;;;;;;;242.77;63.70;;;;;;;;;;4972331;28;20413;-46
2023/10/05 04:05:20;;;;;;;242.57;63.13;;;;;;;;;;4972023;28;20881;-46
2023/10/05 04:07:47;;;;;;;243.70;62.57;;;;;;;;;;4972333;28;20901;-45
2023/10/05 04:10:15;;;;;;;241.73;62.33;;;;;;;;;;4972196;28;20435;-47
2023/10/05 04:12:42;;;;;;;241.90;63.97;;;;;;;;;;4972761;28;20464;-46
2023/10/05 04:15:11;;;;;;;244.27;62.00;;;;;;;;;;4975018;28;20409;-46
2023/10/05 04:17:37;;;;;;;243.43;61.77;;;;;;;;;;4976043;28;20837;-47
2023/10/05 04:20:09;;;;;;;244.57;63.87;;;;;;;;;;4975659;28;20946;-46
2023/10/05 04:22:37;;;;;;;242.10;61.87;;;;;;;;;;4975756;28;20481;-47
2023/10/05 04:25:04;;;;;;;243.70;61.57;;;;;;;;;;4975480;28;20462;-47
2023/10/05 04:27:30;;;;;;;241.43;63.03;;;;;;;;;;4975792;28;20422;-47
2023/10/05 04:29:57;;;;;;;242.53;62.23;;;;;;;;;;4975638;28;20811;-46
2023/10/05 04:32:23;;;;;;;243.43;63.80;;;;;;;;;;4975682;28;20693;-47
2023/10/05 04:34:50;;;;;;;241.63;59.97;;;;;;;;;;4975404;28;20416;-45
2023/10/05 04:37:16;;;;;;;240.33;60.97;;;;;;;;;;4975467;28;20408;-46
2023/10/05 04:39:43;;;;;;;241.27;59.77;;;;;;;;;;4975284;28;20448;-48
2023/10/05 04:42:15;;;;;;;241.07;60.10;;;;;;;;;;4975362;28;20427;-46
2023/10/05 04:44:41;;;;;;;241.20;59.67;;;;;;;;;;4975110;28;20463;-46
2023/10/05 04:47:09;;;;;;;241.63;62.47;;;;;;;;;;4975325;28;20411;-47
2023/10/05 04:49:37;;;;;;;243.57;63.70;;;;;;;;;;4975210;28;20443;-46
2023/10/05 04:52:07;;;;;;;243.03;62.20;;;;;;;;;;4975203;28;20416;-47
2023/10/05 04:54:38;;;;;;;240.60;60.73;;;;;;;;;;4974992;28;20911;-46
2023/10/05 04:57:12;;;;;;;242.50;61.17;;;;;;;;;;4975214;28;20391;-46
2023/10/05 05:00:32;;;;;;;239.97;59.07;;;;;;;;;;4975138;28;20459;-45
2023/10/05 05:06:14;;;;;;;244.47;65.37;;;;;;;;;;4973413;28;20548;-47
2023/10/05 05:08:09;;;;;;;242.97;62.07;;;;;;;;;;4973932;28;20450;-46
2023/10/05 05:10:36;;;;;;;241.80;61.47;;;;;;;;;;4974924;28;20420;-45
2023/10/05 05:13:02;;;;;;;239.70;59.57;;;;;;;;;;4974892;28;20470;-46
2023/10/05 05:15:28;;;;;;;243.63;63.50;;;;;;;;;;4974714;28;20426;-46
2023/10/05 05:17:55;;;;;;;242.27;61.87;;;;;;;;;;4974618;28;20415;-46
2023/10/05 05:20:21;;;;;;;241.17;61.43;;;;;;;;;;4974916;28;20418;-46
2023/10/05 05:22:48;;;;;;;240.33;59.90;;;;;;;;;;4974646;28;20418;-47
2023/10/05 05:25:19;;;;;;;237.70;58.60;;;;;;;;;;4973725;28;20517;-47
2023/10/05 05:27:45;;;;;;;240.10;59.80;;;;;;;;;;4974662;28;20418;-46
2023/10/05 05:30:23;;;;;;;244.00;63.13;;;;;;;;;;4974306;28;20843;-45
2023/10/05 05:32:50;;;;;;;244.17;62.67;;;;;;;;;;4974735;28;20499;-46
2023/10/05 05:35:16;;;;;;;241.77;61.40;;;;;;;;;;4974167;28;20427;-47
2023/10/05 05:37:42;;;;;;;242.07;61.20;;;;;;;;;;4974419;28;20461;-46
2023/10/05 05:40:14;;;;;;;241.90;62.60;;;;;;;;;;4974352;28;20477;-46
2023/10/05 05:42:40;;;;;;;241.70;60.43;;;;;;;;;;4974394;28;20420;-46
2023/10/05 05:45:15;;;;;;;240.60;60.80;;;;;;;;;;4974001;28;20569;-46
2023/10/05 05:47:41;;;;;;;241.63;61.80;;;;;;;;;;4974604;28;20932;-46
2023/10/05 05:50:08;;;;;;;241.32;60.13;;;;;;;;;;4973991;28;20438;-46
2023/10/05 05:52:35;;;;;;;240.77;60.67;;;;;;;;;;4974261;28;20189;-47
2023/10/05 05:55:09;;;;;;;241.87;61.30;;;;;;;;;;4973822;28;20458;-46
2023/10/05 05:57:35;;;;;;;241.60;60.33;;;;;;;;;;4974109;28;20424;-46
2023/10/05 06:00:10;;;;;;;240.00;59.50;;;;;;;;;;4973813;28;20434;-46
2023/10/05 06:02:43;;;;;;;242.07;61.77;;;;;;;;;;4974114;28;20418;-45
2023/10/05 06:05:09;;;;;;;241.37;61.67;;;;;;;;;;4972335;28;20489;-45
2023/10/05 06:07:39;;;;;;;242.17;63.67;;;;;;;;;;4973855;28;20500;-46
2023/10/05 06:10:12;;;;;;;243.70;65.43;;;;;;;;;;4973551;28;20850;-46
2023/10/05 06:12:51;;;;;;;242.10;62.33;;;;;;;;;;4973949;28;20901;-45
2023/10/05 06:15:17;;;;;;;242.23;64.03;;;;;;;;;;4973637;28;20446;-47
2023/10/05 06:17:43;;;;;;;243.57;64.47;;;;;;;;;;4973752;28;20905;-45
2023/10/05 06:20:14;;;;;;;243.03;64.97;;;;;;;;;;4970897;28;21010;-46
2023/10/05 06:22:44;;;;;;;242.93;63.63;;;;;;;;;;4969612;28;20430;-46
2023/10/05 06:25:11;;;;;;;242.07;62.77;;;;;;;;;;4973115;28;20494;-45
2023/10/05 06:27:37;;;;;;;240.80;61.40;;;;;;;;;;4973626;28;20414;-46
2023/10/05 06:30:06;;;;;;;243.53;64.93;;;;;;;;;;4973204;28;20469;-46
2023/10/05 06:32:32;;;;;;;241.87;64.27;;;;;;;;;;4973559;28;20450;-46
2023/10/05 06:34:58;;;;;;;242.67;64.17;;;;;;;;;;4973017;28;20450;-45
2023/10/05 06:37:25;;;;;;;240.77;62.43;;;;;;;;;;4972519;28;20418;-45
2023/10/05 06:39:53;;;;;;;243.37;63.10;;;;;;;;;;4973210;28;20523;-46
2023/10/05 06:42:19;;;;;;;241.50;62.20;;;;;;;;;;4973155;28;20495;-46
2023/10/05 06:44:45;;;;;;;240.88;62.67;;;;;;;;;;4973304;28;20900;-46
2023/10/05 06:47:35;;;;;;;243.27;63.87;;;;;;;;;;4973140;28;20180;-46
2023/10/05 06:50:00;;;;;;;243.77;63.43;;;;;;;;;;4970529;28;20478;-46
2023/10/05 06:52:26;;;;;;;242.27;62.97;;;;;;;;;;4973145;28;20459;-46
2023/10/05 06:54:52;;;;;;;242.07;64.93;;;;;;;;;;4972802;28;20421;-46
2023/10/05 06:57:18;;;;;;;239.43;62.17;;;;;;;;;;4973088;28;20418;-46
2023/10/05 06:59:44;;;;;;;242.20;61.63;;;;;;;;;;4969754;28;20502;-46
2023/10/05 07:02:10;;;;;;;242.50;64.20;;;;;;;;;;4972916;28;20547;-47
2023/10/05 07:04:36;;;;;;;243.67;63.93;;;;;;;;;;4972559;28;20412;-46
2023/10/05 07:07:03;;;;;;;244.63;65.23;;;;;;;;;;4972959;28;20413;-46
2023/10/05 07:09:29;;;;;;;243.57;62.87;;;;;;;;;;4973015;28;20526;-47
2023/10/05 07:11:55;;;;;;;243.80;65.40;;;;;;;;;;4972791;28;20425;-46
2023/10/05 07:14:21;;;;;;;245.20;64.47;;;;;;;;;;4972575;28;20420;-47
2023/10/05 07:16:47;;;;;;;243.03;64.87;;;;;;;;;;4972954;28;20427;-45
2023/10/05 07:19:13;;;;;;;244.60;66.47;;;;;;;;;;4972546;28;20632;-47
2023/10/05 07:21:39;;;;;;;247.37;70.93;;;;;;;;;;4972752;28;20503;-45
2023/10/05 07:24:07;;;;;;;246.00;66.67;;;;;;;;;;4972478;28;20412;-46
2023/10/05 07:26:33;;;;;;;242.60;62.40;;;;;;;;;;4972757;28;20471;-45
2023/10/05 07:28:59;;;;;;;244.97;66.87;;;;;;;;;;4972505;28;20945;-46
2023/10/05 07:31:26;;;;;;;243.70;66.17;;;;;;;;;;4972570;28;20428;-47
2023/10/05 07:33:52;;;;;;;242.40;64.37;;;;;;;;;;4972451;28;20417;-46
2023/10/05 07:36:19;;;;;;;244.43;65.97;;;;;;;;;;4972665;28;20427;-47
2023/10/05 07:38:45;;;;;;;243.07;63.87;;;;;;;;;;4972667;28;20451;-45
2023/10/05 07:41:11;;;;;;;246.40;67.87;;;;;;;;;;4972419;28;20424;-45
2023/10/05 07:43:37;;;;;;;247.07;68.10;;;;;;;;;;4972263;28;20412;-46
2023/10/05 07:46:06;;;;;;;247.07;69.07;;;;;;;;;;4972521;28;20463;-46
2023/10/05 07:48:32;;;;;;;242.53;65.03;;;;;;;;;;4973107;28;20432;-45
2023/10/05 07:50:59;;;;;;;243.80;64.30;;;;;;;;;;4976227;28;20848;-45
2023/10/05 07:53:25;;;;;;;247.43;68.83;;;;;;;;;;4976141;28;20803;-45
2023/10/05 07:55:51;;;;;;;243.57;65.67;;;;;;;;;;4976220;28;20467;-47
2023/10/05 07:58:19;;;;;;;244.17;65.63;;;;;;;;;;4976062;28;20433;-45
2023/10/05 08:00:48;;;;;;;245.93;67.83;;;;;;;;;;4976145;28;20424;-46
2023/10/05 08:03:14;;;;;;;245.97;67.63;;;;;;;;;;4975874;28;20504;-48
2023/10/05 08:05:40;;;;;;;245.33;67.03;;;;;;;;;;4976136;28;20835;-47
2023/10/05 08:08:07;;;;;;;247.03;69.00;;;;;;;;;;4975787;28;20417;-47
2023/10/05 08:10:33;;;;;;;243.83;65.47;;;;;;;;;;4975899;28;20420;-46
2023/10/05 08:13:03;;;;;;;245.97;68.30;;;;;;;;;;4975826;28;20420;-47
2023/10/05 08:15:30;;;;;;;242.40;63.50;;;;;;;;;;4975792;28;20455;-46
2023/10/05 08:17:56;;;;;;;245.47;65.57;;;;;;;;;;4975718;28;20460;-45
2023/10/05 08:20:24;;;;;;;245.47;66.40;;;;;;;;;;4975867;28;20441;-46
2023/10/05 08:22:50;;;;;;;244.37;66.33;;;;;;;;;;4975906;28;20501;-46
2023/10/05 08:25:16;;;;;;;247.40;67.97;;;;;;;;;;4975654;28;20552;-46
2023/10/05 08:27:42;;;;;;;246.57;68.30;;;;;;;;;;4975714;28;20420;-46
2023/10/05 08:30:10;;;;;;;243.97;67.27;;;;;;;;;;4975489;28;20436;-47
2023/10/05 08:32:37;;;;;;;246.93;69.97;;;;;;;;;;4975593;28;20451;-46
2023/10/05 08:35:07;;;;;;;246.03;68.60;;;;;;;;;;4975229;28;20509;-49
2023/10/05 08:37:42;;;;;;;246.80;69.57;;;;;;;;;;4975476;28;20820;-46
2023/10/05 08:40:27;;;;;;;246.97;68.87;;;;;;;;;;4975440;28;20502;-46
2023/10/05 08:42:54;;;;;;;246.00;68.37;;;;;;;;;;4973335;28;20430;-48
2023/10/05 08:45:23;;;;;;;245.13;69.10;;;;;;;;;;4975208;28;20455;-47
2023/10/05 08:47:49;;;;;;;245.83;69.77;;;;;;;;;;4975373;28;20412;-46
2023/10/05 08:50:16;;;;;;;250.67;75.50;;;;;;;;;;4975148;28;20416;-46
2023/10/05 08:52:42;;;;;;;247.70;72.07;;;;;;;;;;4975419;28;20415;-47
2023/10/05 08:55:09;;;;;;;248.73;74.53;;;;;;;;;;4975167;28;20511;-48
2023/10/05 08:57:35;;;;;;;249.70;74.60;;;;;;;;;;4975267;28;20461;-47
2023/10/05 09:00:06;;;;;;;247.30;70.70;;;;;;;;;;4974040;28;20450;-46
2023/10/05 09:02:36;;;;;;;251.03;77.30;;;;;;;;;;4975120;28;20802;-47
2023/10/05 09:05:07;;;;;;;253.47;80.03;;;;;;;;;;4973738;28;20457;-46
2023/10/05 09:07:37;;;;;;;250.47;75.57;;;;;;;;;;4975336;28;20438;-46
2023/10/05 09:10:07;;;;;;;251.17;79.40;;;;;;;;;;4974883;28;20450;-46
2023/10/05 09:12:45;;;;;;;250.97;78.37;;;;;;;;;;4974941;28;20440;-46
2023/10/05 09:15:21;;;;;;;252.17;81.30;;;;;;;;;;4974580;28;20414;-46
2023/10/05 09:18:05;;;;;;;249.87;78.73;;;;;;;;;;4975105;28;20783;-46
2023/10/05 09:20:32;;;;;;;248.67;76.23;;;;;;;;;;4969376;28;20446;-47
2023/10/05 09:23:05;;;;;;;252.07;81.37;;;;;;;;;;4974621;28;20414;-46
2023/10/05 09:25:32;;;;;;;248.33;75.17;;;;;;;;;;4974418;28;20520;-46
2023/10/05 09:28:07;;;;;;;252.53;80.93;;;;;;;;;;4974597;28;20419;-46
2023/10/05 09:30:33;;;;;;;250.43;78.30;;;;;;;;;;4974603;28;20421;-46
2023/10/05 09:33:15;;;;;;;250.63;77.53;;;;;;;;;;4974499;28;20496;-47
2023/10/05 09:35:46;;;;;;;253.30;81.37;;;;;;;;;;4974104;28;20410;-46
2023/10/05 09:38:14;;;;;;;249.90;76.43;;;;;;;;;;4971756;28;20996;-46
2023/10/05 09:40:40;;;;;;;255.13;81.03;;;;;;;;;;4974447;28;20429;-48
2023/10/05 09:43:10;;;;;;;251.13;78.33;;;;;;;;;;4974314;28;20744;-48
2023/10/05 09:45:36;;;;;;;248.17;75.07;;;;;;;;;;4974076;28;20471;-47
2023/10/05 09:48:03;;;;;;;246.23;70.97;;;;;;;;;;4974334;28;20511;-47
2023/10/05 09:50:30;;;;;;;247.43;73.57;;;;;;;;;;4974189;28;20423;-48
2023/10/05 09:53:02;;;;;;;248.23;72.50;;;;;;;;;;4974563;28;20816;-48
2023/10/05 09:55:30;;;;;;;248.37;73.20;;;;;;;;;;4974083;28;20416;-48
2023/10/05 09:58:05;;;;;;;249.87;74.93;;;;;;;;;;4974409;28;20809;-48
2023/10/05 10:03:04;;;;;;;249.43;72.57;;;;;;;;;;4974086;28;20430;-47
2023/10/05 10:05:59;;;;;;;248.63;75.83;;;;;;;;;;4967128;28;21111;-48
2023/10/05 10:08:25;;;;;;;249.37;76.03;;;;;;;;;;4971130;28;20456;-48
2023/10/05 10:11:01;;;;;;;250.63;79.43;;;;;;;;;;4974100;28;20419;-48
2023/10/05 10:13:37;;;;;;;252.80;79.23;;;;;;;;;;4966782;28;20437;-47
2023/10/05 10:16:16;;;;;;;252.30;77.27;;;;;;;;;;4971983;28;20422;-49
2023/10/05 10:18:44;;;;;;;249.50;73.97;;;;;;;;;;4971885;28;20437;-47
2023/10/05 10:21:20;;;;;;;247.77;74.13;;;;;;;;;;4972301;28;20516;-47
2023/10/05 10:23:50;;;;;;;246.47;70.60;;;;;;;;;;4972205;28;20420;-47
2023/10/05 10:26:16;;;;;;;251.07;76.43;;;;;;;;;;4972621;28;20462;-48
2023/10/05 10:31:13;;;;;;;249.67;77.37;;;;;;;;;;4973667;28;20431;-46
2023/10/05 10:33:40;;;;;;;247.37;73.87;;;;;;;;;;4973253;28;20410;-48
2023/10/05 10:36:18;;;;;;;250.27;78.13;;;;;;;;;;4973506;28;20451;-47
2023/10/05 10:38:44;;;;;;;248.33;76.03;;;;;;;;;;4973466;28;20436;-48
2023/10/05 10:41:10;;;;;;;250.67;76.90;;;;;;;;;;4973366;28;20428;-47
2023/10/05 10:43:37;;;;;;;249.83;75.87;;;;;;;;;;4973307;28;20731;-48
2023/10/05 10:46:12;;;;;;;248.10;73.87;;;;;;;;;;4973240;28;20504;-49
2023/10/05 10:48:53;;;;;;;246.57;73.07;;;;;;;;;;4973290;28;20869;-47
2023/10/05 10:51:21;;;;;;;251.00;77.17;;;;;;;;;;4965296;28;20432;-46
2023/10/05 10:53:47;;;;;;;249.37;76.67;;;;;;;;;;4973205;28;20411;-48
2023/10/05 10:56:27;;;;;;;251.17;77.47;;;;;;;;;;4973470;28;20483;-49
2023/10/05 10:58:56;;;;;;;247.87;75.97;;;;;;;;;;4973114;28;20811;-49
2023/10/05 11:01:29;;;;;;;247.13;74.63;;;;;;;;;;4967785;28;20448;-49
2023/10/05 11:04:04;;;;;;;247.67;75.37;;;;;;;;;;4972873;28;20417;-48
2023/10/05 11:06:30;;;;;;;250.13;77.30;;;;;;;;;;4973275;28;20468;-48
2023/10/05 11:08:59;;;;;;;249.17;77.83;;;;;;;;;;4973110;28;20460;-48
2023/10/05 11:11:26;;;;;;;250.70;78.20;;;;;;;;;;4972975;28;20425;-47
2023/10/05 11:13:55;;;;;;;249.37;74.70;;;;;;;;;;4972685;28;20809;-47
2023/10/05 11:16:21;;;;;;;247.37;75.97;;;;;;;;;;4965317;28;20414;-47
2023/10/05 11:18:57;;;;;;;247.83;75.27;;;;;;;;;;4972952;28;20441;-48
2023/10/05 11:21:26;;;;;;;250.53;80.03;;;;;;;;;;4970997;28;20415;-47
2023/10/05 11:23:58;;;;;;;248.67;77.00;;;;;;;;;;4970529;28;20430;-47
2023/10/05 11:26:56;;;;;;;248.33;76.23;;;;;;;;;;4972650;28;20962;-47
2023/10/05 11:29:28;;;;;;;250.13;78.60;;;;;;;;;;4968047;28;20964;-46
2023/10/05 11:32:09;;;;;;;250.17;79.53;;;;;;;;;;4979197;28;20423;-49
2023/10/05 11:34:39;;;;;;;255.77;88.03;;;;;;;;;;4978425;28;20450;-49
2023/10/05 11:37:15;;;;;;;249.60;80.30;;;;;;;;;;4979207;28;20414;-47
2023/10/05 11:39:41;;;;;;;249.53;81.03;;;;;;;;;;4979250;28;20435;-48
2023/10/05 11:42:10;;;;;;;255.53;86.67;;;;;;;;;;4979157;28;20431;-48
2023/10/05 11:44:38;;;;;;;251.77;84.03;;;;;;;;;;4978915;28;20416;-48
2023/10/05 11:47:07;;;;;;;252.67;86.30;;;;;;;;;;4979191;28;20408;-47
2023/10/05 11:49:33;;;;;;;252.23;83.87;;;;;;;;;;4978980;28;20471;-48
2023/10/05 11:52:03;;;;;;;251.67;85.93;;;;;;;;;;4978988;28;20912;-48
2023/10/05 11:54:32;;;;;;;255.00;88.83;;;;;;;;;;4977937;28;20424;-47
2023/10/05 11:57:04;;;;;;;256.20;91.27;;;;;;;;;;4979221;28;20574;-48
2023/10/05 11:59:31;;;;;;;256.77;92.03;;;;;;;;;;4987724;28;20427;-49
2023/10/05 12:01:57;;;;;;;256.23;94.13;;;;;;;;;;4992589;28;20435;-48
2023/10/05 12:04:24;;;;;;;254.03;90.23;;;;;;;;;;4978883;28;20423;-49
2023/10/05 12:06:58;;;;;;;256.93;96.60;;;;;;;;;;4979177;28;20460;-48
2023/10/05 12:09:27;;;;;;;255.63;91.37;;;;;;;;;;4978870;28;20494;-48
2023/10/05 12:11:58;;;;;;;256.43;93.63;;;;;;;;;;4978997;28;20416;-48
2023/10/05 12:14:26;;;;;;;256.03;92.20;;;;;;;;;;4978614;28;20486;-48
2023/10/05 12:16:56;;;;;;;255.33;91.47;;;;;;;;;;4978972;28;20847;-48
2023/10/05 12:19:27;;;;;;;255.97;90.40;;;;;;;;;;4978828;28;20464;-49
2023/10/05 12:21:55;;;;;;;254.10;91.20;;;;;;;;;;4978879;28;20414;-48
2023/10/05 12:24:21;;;;;;;253.20;89.30;;;;;;;;;;4978712;28;20416;-47
2023/10/05 12:26:47;;;;;;;254.73;88.33;;;;;;;;;;4978505;28;20465;-47
2023/10/05 12:29:13;;;;;;;256.87;94.63;;;;;;;;;;4978858;28;20428;-47
2023/10/05 12:31:43;;;;;;;254.33;89.27;;;;;;;;;;4959642;28;20444;-48
2023/10/05 12:34:14;;;;;;;255.70;94.37;;;;;;;;;;4976038;28;20471;-47
2023/10/05 12:36:40;;;;;;;253.80;90.73;;;;;;;;;;4975937;28;20445;-47
2023/10/05 12:39:11;;;;;;;251.47;87.40;;;;;;;;;;4976105;28;20459;-46
2023/10/05 12:41:40;;;;;;;255.97;95.77;;;;;;;;;;4975546;28;20421;-47
2023/10/05 12:44:09;;;;;;;258.77;97.23;;;;;;;;;;4975431;28;20427;-47
2023/10/05 12:46:42;;;;;;;251.87;85.97;;;;;;;;;;4975549;28;20470;-48
2023/10/05 12:49:08;;;;;;;257.37;94.07;;;;;;;;;;4972944;28;21007;-48
2023/10/05 12:51:35;;;;;;;254.77;90.53;;;;;;;;;;4965932;28;20416;-47
2023/10/05 12:54:03;;;;;;;257.63;93.77;;;;;;;;;;4975028;28;20896;-49
2023/10/05 12:56:29;;;;;;;255.77;90.97;;;;;;;;;;4975512;28;20907;-47
2023/10/05 12:58:55;;;;;;;258.50;95.30;;;;;;;;;;4973877;28;20436;-48
2023/10/05 13:01:26;;;;;;;255.83;90.20;;;;;;;;;;4973277;28;20479;-49
2023/10/05 13:03:52;;;;;;;259.90;100.83;;;;;;;;;;4973844;28;20413;-49
2023/10/05 13:06:18;;;;;;;259.37;103.03;;;;;;;;;;4974152;28;20488;-48
2023/10/05 13:08:44;;;;;;;271.80;126.10;;;;;;;;;;4974384;28;20486;-48
2023/10/05 13:11:11;;;;;;;259.03;106.27;;;;;;;;;;4974073;28;20416;-48
2023/10/05 13:13:39;;;;;;;259.07;112.23;;;;;;;;;;4974578;28;20817;-49
2023/10/05 13:16:13;;;;;;;257.53;109.70;;;;;;;;;;4974975;28;20499;-48
2023/10/05 13:18:39;;;;;;;257.20;112.13;;;;;;;;;;4975006;28;20961;-48
2023/10/05 13:21:09;;;;;;;257.77;109.43;;;;;;;;;;4975304;28;20427;-48
2023/10/05 13:23:35;;;;;;;261.93;114.50;;;;;;;;;;4974687;28;20427;-49
2023/10/05 13:26:02;;;;;;;258.57;111.50;;;;;;;;;;4974763;28;20839;-48
2023/10/05 13:28:29;;;;;;;255.63;105.60;;;;;;;;;;4974740;28;20434;-48
2023/10/05 13:30:55;;;;;;;256.23;104.73;;;;;;;;;;4974626;28;20413;-48
2023/10/05 13:33:22;;;;;;;257.07;105.93;;;;;;;;;;4974615;28;21334;-49
2023/10/05 13:35:50;;;;;;;253.73;98.97;;;;;;;;;;4974524;28;20457;-47
2023/10/05 13:38:17;;;;;;;251.57;97.80;;;;;;;;;;4974507;28;20433;-47
2023/10/05 13:41:18;;;;;;;254.13;100.33;;;;;;;;;;4974453;28;20431;-47
2023/10/05 13:43:36;;;;;;;257.13;103.93;;;;;;;;;;4971370;28;20849;-48
2023/10/05 13:46:15;;;;;;;256.83;105.07;;;;;;;;;;4973855;28;20456;-49
2023/10/05 13:48:42;;;;;;;248.77;91.00;;;;;;;;;;4974338;28;20917;-48
2023/10/05 13:51:11;;;;;;;251.30;95.83;;;;;;;;;;4974213;28;20418;-48
2023/10/05 13:54:06;;;;;;;249.30;92.83;;;;;;;;;;4974114;28;20448;-46
2023/10/05 13:56:27;;;;;;;250.83;90.93;;;;;;;;;;4967305;28;20422;-47
2023/10/05 13:58:58;;;;;;;249.80;91.53;;;;;;;;;;4974147;28;20484;-46
2023/10/05 14:01:24;;;;;;;246.67;87.70;;;;;;;;;;4966922;28;20758;-48
2023/10/05 14:03:50;;;;;;;247.17;88.50;;;;;;;;;;4973983;28;20731;-48
2023/10/05 14:06:20;;;;;;;251.67;95.87;;;;;;;;;;4973954;28;20491;-48
2023/10/05 14:08:46;;;;;;;249.50;90.63;;;;;;;;;;4973712;28;20494;-49
2023/10/05 14:11:13;;;;;;;253.27;96.20;;;;;;;;;;4973767;28;20704;-49
2023/10/05 14:13:39;;;;;;;243.37;83.47;;;;;;;;;;4970124;28;20484;-48
2023/10/05 14:16:05;;;;;;;252.90;91.57;;;;;;;;;;4967457;28;20473;-48
2023/10/05 14:18:36;;;;;;;249.53;91.20;;;;;;;;;;4972454;28;20456;-48
2023/10/05 14:21:03;;;;;;;247.90;87.33;;;;;;;;;;4972242;28;20442;-48
2023/10/05 14:23:29;;;;;;;253.77;91.30;;;;;;;;;;4967490;28;20466;-47